Rye Valley, Oregon
Current Conditions -  °F | °C
As of 7:53 AM on Monday 26 Jan 2015 (Local Time) from KBKE Reporting Station
Clear Clear  
Wind Chill: 26°   Ceiling: Unl
Heat Index: 34°   Visibility: 10mi
Dew Point: 31°   Wind: 10mph
Humidity: 89%   Direction: 110°ESE
Pressure: 30.28"   Gusts: NA
Location:  44.4221°N, 117.451°W
Report Text: KBKE 261553Z AUTO 11009KT 10SM CLR 01/M01 A3028 RMK AO2 SLP276 T00111006 TSNO
Loading
Personal Weather Stations






























Interactive Weather Map New forecast layout! Learn more

10-Day Weather Forecast

Advertisements
Track Severe Weather on mobile